METAR Data
IDs: Format: Raw Decoded Include TAF

Data at: 2007 UTC 26 Sep 2021

PAJN 261953Z 24003KT 10SM BKN075 BKN110 BKN250 11/03 A2944 RMK AO2 SLP970 T01060028 $